Latest Weather Observations for Rhyll

IDV60901

Issued at 12:25 pm EST Monday 21 April 2014 (issued every 10 minutes, with the page automatically refreshed every 10 minutes)

About weather observations | Map of Melbourne area stations | Latest observations for Melbourne area | Other Formats
Station Details ID: 086373 Name: RHYLL Lat: -38.46 Lon: 145.31 Height: 13.4 m
Data from the previous 72 hours. | See also: Recent months at Rhyll
Date/Time
EST
Tmp

°C
App
Tmp
°C
Dew
Point
°C
Rel
Hum
%
Delta-T

°C
Wind Press
QNH
hPa
Press
MSL
hPa
Rain
since
9 am
mm
Dir
 
Spd
km/h
Gust
km/h
Spd
kts
Gust
kts
21/12:00pm 18.4 12.3 8.4 52 5.1 N 30 37 16 20 1016.5 1016.5 0.0
21/11:30am 18.8 13.0 9.3 54 5.0 N 30 39 16 21 1016.9 - 0.0
21/11:00am 17.7 12.8 8.3 54 4.8 N 24 33 13 18 1017.5 1017.5 0.0
21/10:30am 16.2 10.4 7.9 58 4.2 N 28 35 15 19 1017.8 - 0.0
21/10:00am 15.9 10.2 8.4 61 3.8 N 28 37 15 20 1017.9 1017.9 0.0
21/09:30am 15.0 10.2 7.3 60 3.8 N 22 32 12 17 1018.4 - 0.0
21/09:00am 14.6 9.0 7.2 61 3.6 N 26 35 14 19 1018.5 1018.5 0.0
21/08:30am 14.6 8.7 7.4 62 3.5 NNW 28 41 15 22 1018.4 - 0.0
21/08:00am 14.6 8.7 7.4 62 3.5 N 28 37 15 20 1018.2 1018.2 0.0
21/07:30am 14.4 9.7 7.9 65 3.2 N 22 33 12 18 1018.3 - 0.0
21/07:00am 13.8 9.3 7.1 64 3.3 N 20 28 11 15 1018.4 1018.4 0.0
21/06:30am 14.0 8.4 7.1 63 3.4 N 26 32 14 17 1018.0 - 0.0
21/06:00am 14.2 7.2 7.0 62 3.5 N 33 41 18 22 1017.7 1017.7 0.0
21/05:30am 14.4 7.8 7.7 64 3.3 N 32 39 17 21 1017.7 - 0.0
21/05:00am 14.7 8.6 8.4 66 3.2 NNW 30 39 16 21 1017.6 1017.6 0.0
21/04:30am 14.6 8.9 8.5 67 3.1 NNW 28 35 15 19 1017.4 - 0.0
21/04:00am 14.6 9.3 8.3 66 3.2 NNW 26 39 14 21 1017.4 1017.4 0.0
21/03:30am 14.6 9.2 8.1 65 3.2 NNW 26 33 14 18 1017.5 - 0.0
21/03:00am 14.7 9.7 8.0 64 3.3 NNW 24 33 13 18 1017.3 1017.3 0.0
21/02:30am 14.7 9.3 8.0 64 3.3 NNW 26 35 14 19 1017.2 - 0.0
21/02:00am 14.7 9.6 7.7 63 3.5 NNW 24 32 13 17 1017.4 1017.4 0.0
21/01:30am 14.8 11.2 8.3 65 3.3 NNW 17 26 9 14 1017.5 - 0.0
21/01:00am 14.8 11.7 8.7 67 3.1 NNW 15 22 8 12 1017.5 1017.5 0.0
21/12:30am 14.6 11.0 8.5 67 3.1 NNW 17 26 9 14 1017.5 - 0.0
21/12:00am 14.7 10.7 8.2 65 3.3 NNW 19 28 10 15 1017.5 1017.5 0.0
 
Date/Time
EST
Tmp

°C
App
Tmp
°C
Dew
Point
°C
Rel
Hum
%
Delta-T

°C
Wind Press
QNH
hPa
Press
MSL
hPa
Rain
since
9 am
mm
Dir
 
Spd
km/h
Gust
km/h
Spd
kts
Gust
kts
20/11:30pm 14.7 10.7 8.4 66 3.2 NNW 19 28 10 15 1017.5 - 0.0
20/11:00pm 14.7 10.9 8.9 68 2.9 NNW 19 24 10 13 1017.6 1017.6 0.0
20/10:30pm 14.9 10.5 8.8 67 3.1 NNW 22 28 12 15 1017.7 - 0.0
20/10:00pm 15.0 10.2 8.9 67 3.1 NNW 24 30 13 16 1017.7 1017.7 0.0
20/09:30pm 15.1 10.3 9.0 67 3.1 NNW 24 32 13 17 1017.6 - 0.0
20/09:00pm 15.1 10.8 9.5 69 2.9 N 22 28 12 15 1017.5 1017.5 0.0
20/08:30pm 15.4 10.4 9.5 68 3.0 N 26 32 14 17 1017.3 - 0.0
20/08:00pm 15.7 11.7 9.1 65 3.4 N 20 26 11 14 1017.3 1017.3 0.0
20/07:30pm 16.0 12.4 9.7 66 3.3 N 19 26 10 14 1017.2 - 0.0
20/07:00pm 16.6 13.9 10.2 66 3.4 N 15 19 8 10 1016.9 1016.9 0.0
20/06:30pm 16.7 14.8 10.5 67 3.3 N 11 15 6 8 1016.6 - 0.0
20/06:00pm 16.9 16.0 9.3 61 3.9 NW 4 7 2 4 1016.5 1016.5 0.0
20/05:30pm 17.2 16.2 8.9 58 4.3 WNW 4 7 2 4 1016.3 - 0.0
20/05:00pm 17.5 15.9 7.8 53 4.9 W 6 11 3 6 1016.0 1016.0 0.0
20/04:30pm 17.9 16.3 7.9 52 5.1 WNW 6 11 3 6 1015.9 - 0.0
20/04:00pm 18.0 15.7 7.4 50 5.3 WNW 9 15 5 8 1015.8 1015.8 0.0
20/03:30pm 18.2 16.2 7.3 49 5.5 WNW 7 15 4 8 1015.8 - 0.0
20/03:00pm 18.0 16.0 7.1 49 5.5 W 7 15 4 8 1015.8 1015.8 0.0
20/02:30pm 17.9 15.4 6.7 48 5.6 WNW 9 17 5 9 1015.7 - 0.0
20/02:00pm 18.0 15.2 6.8 48 5.6 WNW 11 19 6 10 1015.7 1015.7 0.0
20/01:30pm 18.0 15.2 7.1 49 5.5 WNW 11 19 6 10 1015.9 - 0.0
20/01:00pm 17.7 14.9 6.9 49 5.4 WNW 11 19 6 10 1016.1 1016.1 0.0
20/12:30pm 17.6 14.8 6.8 49 5.4 WNW 11 22 6 12 1016.3 - 0.0
20/12:00pm 16.6 13.7 6.4 51 5.0 W 11 26 6 14 1016.8 1016.8 0.0
20/11:30am 17.0 13.9 7.1 52 4.9 WNW 13 26 7 14 1017.0 - 0.0
20/11:00am 16.4 13.6 6.8 53 4.7 W 11 26 6 14 1017.1 1017.1 0.0
20/10:30am 15.9 12.6 6.3 53 4.7 W 13 20 7 11 1017.3 - 0.0
20/10:00am 15.1 12.8 10.3 73 2.5 NNW 13 20 7 11 1017.3 1017.3 0.0
20/09:30am 15.2 13.4 11.0 76 2.2 NNW 11 19 6 10 1017.4 - 0.0
20/09:00am 14.4 12.8 8.6 68 2.9 NW 7 15 4 8 1017.5 1017.5 0.0
20/08:30am 13.9 12.5 8.7 71 2.6 NW 6 13 3 7 1017.3 - 0.0
20/08:00am 13.8 12.4 8.8 72 2.5 WNW 6 15 3 8 1017.2 1017.2 0.0
20/07:30am 13.8 12.4 8.8 72 2.5 WNW 6 13 3 7 1017.0 - 0.0
20/07:00am 13.6 12.2 8.7 72 2.5 WNW 6 9 3 5 1016.8 1016.8 0.0
20/06:30am 13.6 11.9 8.2 70 2.7 W 7 13 4 7 1016.6 - 0.0
20/06:00am 13.4 11.7 8.3 71 2.5 W 7 15 4 8 1016.5 1016.5 0.0
20/05:30am 13.3 11.7 8.6 73 2.4 W 7 15 4 8 1016.4 - 0.0
20/05:00am 13.3 11.9 8.8 74 2.3 W 6 11 3 6 1016.3 1016.3 0.0
20/04:30am 13.5 12.0 9.2 75 2.2 W 7 13 4 7 1016.2 - 0.0
20/04:00am 13.6 10.0 10.0 79 1.9 N 19 24 10 13 1016.2 1016.2 0.0
20/03:30am 13.7 10.0 9.6 76 2.1 N 19 24 10 13 1016.1 - 0.0
20/03:00am 13.9 11.0 9.7 76 2.2 NNW 15 24 8 13 1016.3 1016.3 0.0
20/02:30am 14.1 11.2 9.7 75 2.3 NNW 15 22 8 12 1016.5 - 0.0
20/02:00am 13.9 11.0 9.5 75 2.2 NNW 15 22 8 12 1016.8 1016.8 0.0
20/01:30am 13.7 11.1 9.4 75 2.2 NNW 13 19 7 10 1016.9 - 0.0
20/01:00am 13.5 12.9 8.8 73 2.4 WNW 2 6 1 3 1017.0 1017.0 0.0
20/12:30am 13.4 12.7 8.7 73 2.4 NW 2 6 1 3 1017.1 - 0.0
20/12:00am 13.0 11.9 8.3 73 2.3 WNW 4 7 2 4 1017.3 1017.3 0.0
 
Date/Time
EST
Tmp

°C
App
Tmp
°C
Dew
Point
°C
Rel
Hum
%
Delta-T

°C
Wind Press
QNH
hPa
Press
MSL
hPa
Rain
since
9 am
mm
Dir
 
Spd
km/h
Gust
km/h
Spd
kts
Gust
kts
19/11:30pm 13.5 12.4 8.6 72 2.5 W 4 7 2 4 1017.5 - 0.0
19/11:00pm 13.5 12.8 8.4 71 2.5 W 2 6 1 3 1017.7 1017.7 0.0
19/10:30pm 13.5 12.5 8.8 73 2.4 WNW 4 6 2 3 1017.9 - 0.0
19/10:00pm 13.6 12.3 9.3 75 2.2 NW 6 9 3 5 1018.1 1018.1 0.0
19/09:30pm 13.4 11.8 7.8 69 2.8 W 6 7 3 4 1018.3 - 0.0
19/09:00pm 13.2 12.0 7.9 70 2.6 W 4 6 2 3 1018.3 1018.3 0.0
19/08:30pm 13.3 11.7 8.0 70 2.6 W 6 7 3 4 1018.5 - 0.0
19/08:00pm 13.3 11.7 8.0 70 2.6 WSW 6 9 3 5 1018.5 1018.5 0.0
19/07:30pm 13.2 11.6 8.1 71 2.5 WSW 6 9 3 5 1018.6 - 0.0
19/07:00pm 13.2 11.7 8.3 72 2.4 W 6 7 3 4 1018.5 1018.5 0.0
19/06:30pm 13.4 12.4 8.9 74 2.3 WSW 4 7 2 4 1018.5 - 0.0
19/06:00pm 13.6 12.3 9.1 74 2.3 WSW 6 9 3 5 1018.4 1018.4 0.0
19/05:30pm 13.8 12.6 8.2 69 2.8 W 4 7 2 4 1018.3 - 0.0
19/05:00pm 13.7 11.9 8.1 69 2.8 WSW 7 13 4 7 1018.4 1018.4 0.0
19/04:30pm 12.8 12.6 10.3 85 1.3 WNW 2 4 1 2 1018.6 - 0.0
19/04:00pm 12.6 8.7 9.6 82 1.5 SW 20 32 11 17 1018.8 1018.8 0.0
19/03:30pm 15.5 12.3 7.0 57 4.2 SW 13 22 7 12 1018.6 - 0.0
19/03:00pm 14.9 12.3 7.9 63 3.5 WSW 11 20 6 11 1018.7 1018.7 0.0
19/02:30pm 14.7 12.0 7.5 62 3.6 WSW 11 20 6 11 1018.6 - 0.0
19/02:00pm 14.4 13.1 9.8 74 2.4 SW 7 13 4 7 1018.7 1018.7 0.0
19/01:30pm 14.7 13.3 9.5 71 2.7 W 7 13 4 7 1019.0 - 0.0
19/01:00pm 13.3 11.3 10.3 82 1.6 W 11 20 6 11 1019.3 1019.3 0.0
19/12:30pm 15.7 12.4 8.0 60 3.9 SW 15 24 8 13 1019.4 - 0.0
19/12:00pm 15.3 12.7 7.8 61 3.7 WSW 11 24 6 13 1019.8 1019.8 0.0
19/11:30am 15.2 12.2 7.7 61 3.7 WSW 13 24 7 13 1019.9 - 0.0
19/11:00am 14.9 11.9 9.3 69 2.9 SSW 15 22 8 12 1020.0 1020.0 0.0
19/10:30am 13.5 9.3 8.1 70 2.7 SW 20 32 11 17 1020.1 - 0.0
19/10:00am 14.9 12.0 8.2 64 3.4 SW 13 24 7 13 1020.1 1020.1 0.0
19/09:30am 14.0 12.7 9.2 73 2.4 WSW 6 17 3 9 1020.0 - 0.0
19/09:00am 12.8 11.6 10.3 85 1.3 W 7 13 4 7 1019.9 1019.9 1.4
19/08:30am 13.7 12.2 10.5 81 1.7 W 9 19 5 10 1019.7 - 1.4
19/08:00am 14.2 12.0 7.9 66 3.1 SW 9 17 5 9 1019.5 1019.5 1.4
19/07:30am 13.3 11.6 8.4 72 2.4 W 7 11 4 6 1019.2 - 1.4
19/07:00am 12.9 11.2 7.6 70 2.6 WSW 6 11 3 6 1018.9 1018.9 1.4
19/06:30am 13.2 11.3 7.6 69 2.7 WSW 7 13 4 7 1018.8 - 1.4
19/06:00am 13.2 10.8 7.0 66 3.0 WSW 9 17 5 9 1018.7 1018.7 1.4
19/05:30am 12.9 10.4 8.4 74 2.2 WSW 11 22 6 12 1018.6 - 1.4
19/05:00am 12.9 10.6 7.6 70 2.6 WSW 9 19 5 10 1018.5 1018.5 1.4
19/04:30am 12.2 10.6 8.7 79 1.7 W 7 13 4 7 1018.4 - 1.4
19/04:00am 13.5 11.1 8.8 73 2.4 WSW 11 26 6 14 1018.3 1018.3 1.4
19/03:30am 13.4 11.5 7.4 67 2.9 WSW 7 13 4 7 1018.4 - 1.4
19/03:00am 13.5 9.9 6.6 63 3.3 SW 15 20 8 11 1018.5 1018.5 1.4
19/02:30am 13.9 9.8 7.9 67 3.0 SW 19 32 10 17 1018.6 - 1.4
19/02:00am 13.7 11.8 7.7 67 2.9 WSW 7 13 4 7 1018.8 1018.8 1.4
19/01:30am 14.1 10.6 7.4 64 3.3 SW 15 26 8 14 1019.0 - 1.4
19/01:00am 14.2 10.7 7.0 62 3.5 SW 15 26 8 14 1019.0 1019.0 1.4
19/12:30am 14.2 10.3 7.0 62 3.5 SW 17 26 9 14 1019.0 - 1.4
19/12:00am 13.8 9.9 7.3 65 3.2 SW 17 33 9 18 1018.9 1018.9 1.4
 
Date/Time
EST
Tmp

°C
App
Tmp
°C
Dew
Point
°C
Rel
Hum
%
Delta-T

°C
Wind Press
QNH
hPa
Press
MSL
hPa
Rain
since
9 am
mm
Dir
 
Spd
km/h
Gust
km/h
Spd
kts
Gust
kts
18/11:30pm 13.7 10.2 7.2 65 3.2 SW 15 24 8 13 1018.9 - 1.2
18/11:00pm 13.6 10.1 8.9 73 2.4 SW 17 28 9 15 1019.0 1019.0 1.2
18/10:30pm 11.8 8.5 9.5 86 1.2 SW 17 32 9 17 1019.3 - 1.2
18/10:00pm 12.0 9.2 10.1 88 1.0 SSW 15 37 8 20 1019.3 1019.3 1.2
18/09:30pm 14.3 10.8 8.7 69 2.8 SW 17 28 9 15 1019.2 - 0.6
18/09:00pm 13.9 9.9 8.9 72 2.5 SW 20 32 11 17 1019.1 1019.1 0.6
18/08:30pm 14.1 10.4 8.1 67 3.0 SW 17 28 9 15 1018.8 - 0.6
18/08:00pm 14.4 11.5 8.1 66 3.1 WSW 13 33 7 18 1018.7 1018.7 0.6
18/07:30pm 14.4 11.4 7.9 65 3.2 WSW 13 22 7 12 1018.6 - 0.6
18/07:00pm 14.6 9.8 7.2 61 3.6 SW 22 35 12 19 1018.5 1018.5 0.6
18/06:30pm 14.6 10.5 6.4 58 4.0 SW 17 32 9 17 1018.2 - 0.6
18/06:00pm 14.5 10.6 8.5 67 3.0 SW 19 30 10 16 1018.1 1018.1 0.6
18/05:30pm 15.0 12.0 7.5 61 3.7 WSW 13 22 7 12 1017.8 - 0.6
18/05:00pm 15.7 11.9 7.5 58 4.1 WSW 17 30 9 16 1017.4 1017.4 0.6
18/04:30pm 15.7 11.6 6.2 53 4.6 WSW 17 28 9 15 1017.2 - 0.6
18/04:00pm 16.0 11.1 7.0 55 4.4 SW 22 37 12 20 1016.9 1016.9 0.6
18/03:30pm 16.9 11.9 8.1 56 4.5 SW 24 43 13 23 1016.6 - 0.6
18/03:00pm 17.1 11.8 6.6 50 5.2 SW 24 39 13 21 1016.4 1016.4 0.6
18/02:30pm 17.1 11.9 7.2 52 4.9 SW 24 44 13 24 1016.1 - 0.6
18/02:00pm 17.1 11.7 8.0 55 4.6 SW 26 43 14 23 1015.9 1015.9 0.6
18/01:30pm 16.7 11.6 7.6 55 4.6 SW 24 37 13 20 1015.6 - 0.6
18/01:00pm 15.7 11.9 8.9 64 3.5 SW 19 44 10 24 1015.4 1015.4 0.6
18/12:30pm 14.4 11.0 11.2 81 1.7 SW 20 32 11 17 1015.6 - 0.6

Latest Capital City Observations: Canberra | Sydney | Melbourne | Brisbane | Adelaide | Perth | Hobart | Darwin

Other Formats:

Comma delimited format used in spreadsheet applications
http://www.bom.gov.au/fwo/IDV60901/IDV60901.94892.axf

JavaScript Object Notation format (JSON) in row-major order
http://www.bom.gov.au/fwo/IDV60901/IDV60901.94892.json